Time;durP1;ratioP1;P1;durP2;ratioP2;P2;SDS_P1;SDS_P2;PMS_P1;PMS_P2;Temp;Humidity;BMP_temperature;BMP_pressure;BME280_temperature;BME280_humidity;BME280_pressure;Samples;Min_cycle;Max_cycle;Signal;HPM_P1;HPM_P2
2022/03/17 00:00:10;;;;;;;19.48;14.18;;;;;;;3.05;100.00;93439.47;2099435;28;20032;-81
2022/03/17 00:01:11;;;;;;;17.83;13.15;;;;;;;3.09;100.00;93440.28;2101747;28;20056;-82
2022/03/17 00:02:12;;;;;;;21.00;14.48;;;;;;;3.11;100.00;93434.63;2105392;28;20028;-81
2022/03/17 00:03:13;;;;;;;19.70;13.95;;;;;;;3.21;100.00;93440.06;2115565;27;20016;-81
2022/03/17 00:04:14;;;;;;;23.10;14.68;;;;;;;3.17;100.00;93438.50;2120060;27;20012;-82
2022/03/17 00:05:15;;;;;;;19.38;14.43;;;;;;;3.14;100.00;93436.56;2128904;27;20157;-81
2022/03/17 00:06:16;;;;;;;19.58;13.38;;;;;;;3.13;100.00;93437.69;2122110;27;20019;-80
2022/03/17 00:07:18;;;;;;;20.23;14.02;;;;;;;3.10;100.00;93441.81;2102955;28;20020;-81
2022/03/17 00:08:19;;;;;;;19.63;13.48;;;;;;;3.00;100.00;93437.16;2106790;27;20109;-80
2022/03/17 00:09:20;;;;;;;22.48;14.07;;;;;;;3.06;100.00;93437.59;2106081;28;21684;-81
2022/03/17 00:10:22;;;;;;;19.90;14.75;;;;;;;3.09;100.00;93434.25;2104151;28;20033;-82
2022/03/17 00:11:23;;;;;;;19.92;13.80;;;;;;;3.05;100.00;93438.72;2109511;28;20052;-81
2022/03/17 00:12:24;;;;;;;21.77;14.35;;;;;;;2.93;100.00;93448.38;2107213;28;20118;-81
2022/03/17 00:13:26;;;;;;;21.50;14.45;;;;;;;2.96;100.00;93431.09;2111692;28;20034;-81
2022/03/17 00:14:28;;;;;;;23.60;14.68;;;;;;;2.97;100.00;93433.34;2110555;28;20011;-81
2022/03/17 00:15:29;;;;;;;19.25;14.98;;;;;;;2.92;100.00;93423.13;2115257;27;20542;-81
2022/03/17 00:16:31;;;;;;;21.45;14.10;;;;;;;2.94;100.00;93428.03;2105390;28;20023;-80
2022/03/17 00:17:32;;;;;;;19.85;14.32;;;;;;;3.01;100.00;93426.22;2114655;27;20027;-81
2022/03/17 00:18:33;;;;;;;18.05;13.57;;;;;;;3.05;100.00;93430.81;2117984;27;20114;-80
2022/03/17 00:19:36;;;;;;;19.55;14.32;;;;;;;2.96;100.00;93426.56;2097570;28;20030;-81
2022/03/17 00:20:37;;;;;;;19.73;14.00;;;;;;;3.01;100.00;93428.88;2097676;28;20024;-80
2022/03/17 00:21:39;;;;;;;19.60;13.60;;;;;;;3.01;100.00;93431.50;2106664;28;20472;-82
2022/03/17 00:22:40;;;;;;;20.45;14.48;;;;;;;3.05;100.00;93430.81;2105380;28;20036;-81
2022/03/17 00:23:41;;;;;;;19.33;14.05;;;;;;;3.15;100.00;93430.91;2101744;28;20020;-80
2022/03/17 00:24:43;;;;;;;24.17;15.10;;;;;;;3.12;100.00;93436.19;2101714;28;20020;-81
2022/03/17 00:25:44;;;;;;;22.00;14.90;;;;;;;3.11;100.00;93426.72;2099815;28;20024;-80
2022/03/17 00:26:45;;;;;;;22.48;15.07;;;;;;;3.10;100.00;93427.84;2108056;28;20066;-80
2022/03/17 00:27:47;;;;;;;18.98;14.45;;;;;;;3.05;100.00;93433.44;2114169;27;20054;-81
2022/03/17 00:28:48;;;;;;;21.98;14.40;;;;;;;3.05;100.00;93428.91;2107011;27;20123;-81
2022/03/17 00:29:50;;;;;;;21.60;14.10;;;;;;;3.00;100.00;93431.88;2108182;28;20019;-82
2022/03/17 00:30:51;;;;;;;19.05;14.88;;;;;;;2.93;100.00;93423.88;2113951;27;20024;-81
2022/03/17 00:31:52;;;;;;;21.67;14.30;;;;;;;2.92;100.00;93432.91;2114656;27;20047;-81
2022/03/17 00:32:53;;;;;;;20.88;14.23;;;;;;;2.86;100.00;93429.09;2104914;28;20028;-81
2022/03/17 00:33:54;;;;;;;23.92;14.40;;;;;;;2.94;100.00;93428.81;2108013;28;20016;-80
2022/03/17 00:36:15;;;;;;;20.63;14.93;;;;;;;2.91;100.00;93432.16;2117393;27;20034;-81
2022/03/17 00:37:16;;;;;;;20.45;14.35;;;;;;;2.94;100.00;93426.16;2114209;27;20054;-81
2022/03/17 00:38:18;;;;;;;17.90;13.82;;;;;;;2.88;100.00;93427.59;2106261;28;20343;-81
2022/03/17 00:39:21;;;;;;;20.65;14.82;;;;;;;2.86;100.00;93426.44;2091638;28;20029;-81
2022/03/17 00:40:23;;;;;;;20.13;13.90;;;;;;;2.84;100.00;93432.06;2098170;28;20032;-81
2022/03/17 00:41:24;;;;;;;18.27;13.75;;;;;;;2.86;100.00;93434.34;2108302;27;20032;-80
2022/03/17 00:42:27;;;;;;;20.02;14.43;;;;;;;2.88;100.00;93432.88;2114328;28;20051;-82
2022/03/17 00:43:28;;;;;;;21.10;14.57;;;;;;;2.85;100.00;93440.75;2112445;27;20016;-83
2022/03/17 00:44:29;;;;;;;20.83;14.60;;;;;;;2.88;100.00;93435.50;2115184;27;20011;-80
2022/03/17 00:45:30;;;;;;;17.20;12.75;;;;;;;2.94;100.00;93434.09;2122689;27;20079;-82
2022/03/17 00:46:31;;;;;;;22.48;14.27;;;;;;;2.92;100.00;93431.03;2116370;27;20587;-81
2022/03/17 00:47:32;;;;;;;21.38;14.85;;;;;;;2.91;100.00;93432.16;2105623;28;20031;-82
2022/03/17 00:48:34;;;;;;;20.77;14.30;;;;;;;2.87;100.00;93425.31;2107616;28;20026;-81
2022/03/17 00:49:35;;;;;;;20.75;14.93;;;;;;;2.87;100.00;93435.88;2114683;27;20027;-81
2022/03/17 00:50:37;;;;;;;21.25;14.82;;;;;;;2.87;100.00;93431.34;2118097;27;20102;-82
2022/03/17 00:51:38;;;;;;;20.88;14.63;;;;;;;2.85;100.00;93436.22;2108621;28;20098;-82
2022/03/17 00:52:39;;;;;;;22.35;14.68;;;;;;;2.83;100.00;93432.44;2099667;28;20024;-83
2022/03/17 00:53:40;;;;;;;19.45;14.13;;;;;;;2.79;100.00;93437.66;2114002;28;20031;-81
2022/03/17 00:54:42;;;;;;;21.13;13.18;;;;;;;2.82;100.00;93436.94;2114062;27;20028;-82
2022/03/17 00:55:43;;;;;;;18.83;13.52;;;;;;;2.84;100.00;93436.59;2105497;28;20017;-83
2022/03/17 00:56:44;;;;;;;18.73;13.10;;;;;;;2.78;100.00;93431.63;2110453;28;20515;-81
2022/03/17 00:57:45;;;;;;;19.70;13.68;;;;;;;2.78;100.00;93433.50;2097724;28;20059;-81
2022/03/17 00:58:48;;;;;;;16.60;13.13;;;;;;;2.85;100.00;93436.22;2101529;28;20016;-81
2022/03/17 00:59:49;;;;;;;19.10;12.88;;;;;;;2.86;100.00;93440.41;2097603;28;20048;-81
2022/03/17 01:00:50;;;;;;;20.08;14.05;;;;;;;2.82;100.00;93444.13;2111887;27;20153;-81
2022/03/17 01:01:51;;;;;;;17.70;13.85;;;;;;;2.81;100.00;93440.72;2113803;27;20064;-81
2022/03/17 01:02:54;;;;;;;24.67;14.70;;;;;;;2.83;100.00;93437.72;2107772;28;20163;-80
2022/03/17 01:03:55;;;;;;;19.35;13.80;;;;;;;2.81;100.00;93443.34;2106881;28;20032;-82
2022/03/17 01:04:56;;;;;;;18.30;13.68;;;;;;;2.78;100.00;93438.78;2116142;27;20023;-81
2022/03/17 01:05:59;;;;;;;17.52;13.23;;;;;;;2.73;100.00;93447.78;2106971;28;20458;-83
2022/03/17 01:07:00;;;;;;;20.27;13.27;;;;;;;2.76;100.00;93446.28;2111066;28;20024;-81
2022/03/17 01:08:01;;;;;;;18.48;12.82;;;;;;;2.84;100.00;93447.16;2097216;28;20040;-82
2022/03/17 01:09:02;;;;;;;18.58;12.98;;;;;;;2.87;100.00;93449.84;2113471;27;20098;-81
2022/03/17 01:10:08;;;;;;;16.98;12.73;;;;;;;2.86;100.00;93445.69;2116080;27;20034;-83
2022/03/17 01:11:09;;;;;;;16.20;12.85;;;;;;;2.86;100.00;93447.56;2101052;27;20047;-81
2022/03/17 01:12:10;;;;;;;17.67;12.52;;;;;;;2.75;100.00;93450.03;2100472;28;20475;-81
2022/03/17 01:13:16;;;;;;;18.40;14.52;;;;;;;2.69;100.00;93440.94;2095761;28;20119;-82
2022/03/17 01:14:23;;;;;;;16.35;12.57;;;;;;;2.70;100.00;93442.44;2102313;28;20024;-81
2022/03/17 01:15:29;;;;;;;17.90;12.60;;;;;;;2.73;100.00;93439.09;2097164;28;20105;-82
2022/03/17 01:16:30;;;;;;;17.65;12.88;;;;;;;2.77;100.00;93438.03;2096588;28;20024;-81
2022/03/17 01:17:32;;;;;;;16.35;12.98;;;;;;;2.77;100.00;93447.81;2113597;27;20056;-82
2022/03/17 01:18:33;;;;;;;20.98;13.63;;;;;;;2.79;100.00;93440.28;2109031;28;20061;-83
2022/03/17 01:19:35;;;;;;;19.75;13.95;;;;;;;2.93;100.00;93439.72;2103890;28;20477;-82
2022/03/17 01:20:36;;;;;;;17.77;13.57;;;;;;;2.92;100.00;93441.59;2107767;28;20020;-81
2022/03/17 01:21:37;;;;;;;22.15;14.00;;;;;;;2.84;100.00;93444.50;2097185;28;20117;-81
2022/03/17 01:22:38;;;;;;;23.55;14.77;;;;;;;2.73;100.00;93444.38;2107608;28;20114;-82
2022/03/17 01:23:54;;;;;;;17.42;13.20;;;;;;;2.77;100.00;93442.53;2107884;28;20015;-82
2022/03/17 01:24:55;;;;;;;19.40;14.43;;;;;;;2.84;100.00;93439.97;2110487;27;20028;-82
2022/03/17 01:25:55;;;;;;;21.35;14.25;;;;;;;2.87;100.00;93438.50;2109242;28;20031;-82
2022/03/17 01:26:56;;;;;;;25.08;14.70;;;;;;;2.98;100.00;93442.03;2110438;28;20030;-81
2022/03/17 01:27:57;;;;;;;21.15;14.70;;;;;;;2.94;100.00;93442.00;2115813;27;20031;-81
2022/03/17 01:28:58;;;;;;;19.38;14.20;;;;;;;2.85;100.00;93436.22;2103496;28;20171;-81
2022/03/17 01:30:09;;;;;;;24.80;15.10;;;;;;;2.76;100.00;93433.09;2096104;28;20017;-82
2022/03/17 01:31:11;;;;;;;28.40;14.77;;;;;;;2.78;100.00;93441.41;2107945;27;20023;-83
2022/03/17 01:32:12;;;;;;;21.40;14.93;;;;;;;2.85;100.00;93438.09;2123999;27;20027;-80
2022/03/17 01:33:13;;;;;;;21.33;15.25;;;;;;;2.85;100.00;93443.38;2113919;27;20016;-81
2022/03/17 01:34:14;;;;;;;20.98;15.82;;;;;;;2.89;100.00;93434.38;2114940;27;20076;-82
2022/03/17 01:35:15;;;;;;;20.38;15.02;;;;;;;2.91;100.00;93437.44;2104295;28;20034;-81
2022/03/17 01:36:16;;;;;;;23.95;15.70;;;;;;;2.93;100.00;93439.72;2102814;28;20365;-81
2022/03/17 01:37:17;;;;;;;22.42;15.73;;;;;;;2.96;100.00;93434.47;2105556;28;20114;-81
2022/03/17 01:38:18;;;;;;;24.73;15.68;;;;;;;2.91;100.00;93436.69;2106994;28;20028;-81
2022/03/17 01:39:19;;;;;;;24.80;15.90;;;;;;;2.88;100.00;93434.75;2114076;28;20023;-82
2022/03/17 01:40:20;;;;;;;20.67;14.45;;;;;;;2.91;100.00;93434.81;2113751;27;20051;-81
2022/03/17 01:41:21;;;;;;;23.55;15.80;;;;;;;2.99;100.00;93433.00;2103264;28;20115;-81
2022/03/17 01:42:22;;;;;;;21.77;15.13;;;;;;;3.17;100.00;93441.91;2105771;28;20488;-81
2022/03/17 01:43:23;;;;;;;22.58;15.48;;;;;;;3.08;100.00;93435.38;2114285;27;20379;-82
2022/03/17 01:44:25;;;;;;;20.55;14.93;;;;;;;3.25;100.00;93430.28;2113437;27;20733;-81
2022/03/17 01:45:26;;;;;;;24.73;16.15;;;;;;;3.12;100.00;93433.53;2107982;28;20026;-81
2022/03/17 01:46:27;;;;;;;20.40;14.85;;;;;;;3.05;100.00;93433.44;2106721;28;20031;-82
2022/03/17 01:47:28;;;;;;;22.35;16.30;;;;;;;3.01;100.00;93425.47;2117336;27;20078;-83
2022/03/17 01:48:29;;;;;;;23.05;16.00;;;;;;;2.99;100.00;93436.41;2104762;28;20035;-82
2022/03/17 01:49:30;;;;;;;23.13;15.95;;;;;;;2.99;100.00;93428.50;2116000;27;20027;-81
2022/03/17 01:50:33;;;;;;;21.60;15.57;;;;;;;3.03;100.00;93439.84;2123155;27;20410;-82
2022/03/17 01:51:34;;;;;;;23.98;15.90;;;;;;;3.03;100.00;93431.94;2113424;27;20038;-81
2022/03/17 01:52:36;;;;;;;25.52;15.85;;;;;;;3.05;100.00;93428.16;2111469;28;20028;-82
2022/03/17 01:53:38;;;;;;;20.20;15.23;;;;;;;3.02;100.00;93432.28;2107596;27;20487;-81
2022/03/17 01:54:41;;;;;;;19.08;15.35;;;;;;;3.13;100.00;93424.50;2107172;28;20035;-83
2022/03/17 01:55:42;;;;;;;20.40;15.07;;;;;;;3.12;100.00;93431.66;2101646;28;20024;-81
2022/03/17 01:56:44;;;;;;;24.80;15.93;;;;;;;3.09;100.00;93432.38;2107669;28;20020;-81
2022/03/17 01:57:46;;;;;;;21.73;15.38;;;;;;;3.02;100.00;93435.66;2114118;27;20030;-81
2022/03/17 01:58:47;;;;;;;20.30;14.77;;;;;;;3.08;100.00;93436.13;2113802;28;20038;-82
2022/03/17 01:59:49;;;;;;;22.25;15.10;;;;;;;3.02;100.00;93427.00;2097394;28;20461;-82
2022/03/17 02:00:51;;;;;;;19.33;14.40;;;;;;;2.93;100.00;93434.44;2111684;28;20022;-81
2022/03/17 02:01:53;;;;;;;21.98;14.20;;;;;;;2.97;100.00;93433.34;2107645;28;20125;-82
2022/03/17 02:02:54;;;;;;;21.63;15.15;;;;;;;2.93;100.00;93435.19;2112226;27;20619;-83
2022/03/17 02:03:56;;;;;;;19.42;14.27;;;;;;;2.92;100.00;93428.41;2111553;28;20074;-81
2022/03/17 02:04:57;;;;;;;22.40;14.40;;;;;;;2.90;100.00;93425.38;2110141;27;20119;-81
2022/03/17 02:05:58;;;;;;;18.85;14.38;;;;;;;2.88;100.00;93432.88;2098387;28;20759;-81
2022/03/17 02:06:59;;;;;;;18.95;14.35;;;;;;;2.86;100.00;93439.63;2097218;28;20033;-81
2022/03/17 02:08:01;;;;;;;18.35;14.13;;;;;;;2.86;100.00;93429.84;2096941;28;20024;-81
2022/03/17 02:09:02;;;;;;;18.63;12.88;;;;;;;2.91;100.00;93432.16;2105411;28;20020;-81
2022/03/17 02:10:04;;;;;;;17.58;13.27;;;;;;;2.85;100.00;93430.19;2100314;28;20779;-82
2022/03/17 02:13:45;;;;;;;16.92;12.07;;;;;;;3.00;100.00;93430.00;2115851;27;20027;-81
2022/03/17 02:14:53;;;;;;;21.63;14.57;;;;;;;2.98;100.00;93431.47;2113505;27;20742;-82
2022/03/17 02:15:55;;;;;;;18.63;13.10;;;;;;;2.97;100.00;93432.59;2113694;27;20024;-81
2022/03/17 02:16:56;;;;;;;20.70;14.30;;;;;;;2.96;100.00;93439.00;2097173;28;20107;-82
2022/03/17 02:17:58;;;;;;;23.38;15.55;;;;;;;2.96;100.00;93431.84;2096281;28;20444;-80
2022/03/17 02:18:59;;;;;;;20.83;14.02;;;;;;;2.96;100.00;93439.75;2114410;28;20118;-82
2022/03/17 02:20:02;;;;;;;19.48;14.82;;;;;;;2.92;100.00;93438.94;2109420;28;20020;-80
2022/03/17 02:21:04;;;;;;;22.58;13.70;;;;;;;2.89;100.00;93446.81;2112862;28;20213;-81
2022/03/17 02:22:06;;;;;;;24.45;15.05;;;;;;;2.88;100.00;93438.16;2107353;28;20141;-82
2022/03/17 02:25:54;;;;;;;17.92;13.70;;;;;;;3.00;100.00;93439.81;2134246;27;20487;-82
2022/03/17 02:26:58;;;;;;;18.98;13.63;;;;;;;3.03;100.00;93439.09;2121403;28;20096;-82
2022/03/17 02:28:02;;;;;;;18.67;14.32;;;;;;;3.03;100.00;93447.78;2098388;28;20024;-82
2022/03/17 02:29:03;;;;;;;20.27;14.25;;;;;;;3.11;100.00;93445.19;2106929;28;20016;-82
2022/03/17 02:30:06;;;;;;;22.77;14.27;;;;;;;3.11;100.00;93445.19;2114106;28;20019;-82
2022/03/17 02:31:07;;;;;;;23.23;16.20;;;;;;;3.02;100.00;93445.47;2115188;27;20072;-81
2022/03/17 02:32:09;;;;;;;24.27;15.93;;;;;;;3.09;100.00;93445.56;2105536;28;20019;-81
2022/03/17 02:33:12;;;;;;;19.92;14.25;;;;;;;3.01;100.00;93450.00;2105390;27;20016;-83
2022/03/17 02:34:16;;;;;;;21.48;15.10;;;;;;;2.96;100.00;93445.03;2109712;28;20011;-82
2022/03/17 02:35:22;;;;;;;19.00;14.00;;;;;;;2.90;100.00;93443.84;2105507;28;20034;-82
2022/03/17 02:36:24;;;;;;;20.40;15.23;;;;;;;2.91;100.00;93449.88;2099440;28;20020;-81
2022/03/17 02:37:25;;;;;;;19.00;13.48;;;;;;;2.99;100.00;93449.63;2102960;28;20398;-81
2022/03/17 02:38:26;;;;;;;21.85;14.73;;;;;;;3.15;100.00;93438.84;2105021;28;20027;-82
2022/03/17 02:39:27;;;;;;;21.38;13.75;;;;;;;3.11;100.00;93440.69;2101220;28;20106;-83
2022/03/17 02:40:28;;;;;;;21.80;14.88;;;;;;;3.00;100.00;93447.72;2094516;28;20020;-82
2022/03/17 02:41:29;;;;;;;20.95;14.02;;;;;;;2.96;100.00;93442.41;2099429;28;20044;-83
2022/03/17 02:42:31;;;;;;;20.95;14.75;;;;;;;2.97;100.00;93454.47;2099507;28;20028;-80
2022/03/17 02:43:32;;;;;;;20.15;14.73;;;;;;;2.94;100.00;93446.50;2102392;28;20126;-81
2022/03/17 02:44:33;;;;;;;20.73;14.52;;;;;;;2.91;100.00;93447.25;2105333;28;20020;-81
2022/03/17 02:45:35;;;;;;;21.20;14.25;;;;;;;2.92;100.00;93444.22;2105044;28;20023;-81
2022/03/17 02:46:36;;;;;;;18.00;13.93;;;;;;;2.90;100.00;93446.47;2104548;28;20507;-82
2022/03/17 02:47:37;;;;;;;20.65;14.60;;;;;;;2.85;100.00;93446.78;2108273;28;20046;-82
2022/03/17 02:48:38;;;;;;;20.75;13.60;;;;;;;2.85;100.00;93443.38;2119131;27;20478;-81
2022/03/17 02:49:39;;;;;;;19.73;13.48;;;;;;;2.84;100.00;93444.50;2102995;28;20013;-82
2022/03/17 02:50:40;;;;;;;19.92;13.60;;;;;;;2.84;100.00;93445.25;2111582;28;20027;-80
2022/03/17 02:51:42;;;;;;;19.23;14.13;;;;;;;2.83;100.00;93448.28;2113354;28;20012;-81
2022/03/17 02:52:44;;;;;;;20.70;13.77;;;;;;;2.79;100.00;93437.66;2101026;28;20046;-81
2022/03/17 02:53:46;;;;;;;20.73;14.32;;;;;;;2.78;100.00;93444.06;2107102;28;20020;-81
2022/03/17 02:54:46;;;;;;;20.48;13.82;;;;;;;2.81;100.00;93439.94;2106389;28;20135;-81
2022/03/17 02:55:47;;;;;;;19.00;13.38;;;;;;;2.90;100.00;93445.72;2100164;28;20036;-81
2022/03/17 02:56:48;;;;;;;22.02;13.80;;;;;;;2.91;100.00;93447.25;2097127;28;20040;-82
2022/03/17 02:57:49;;;;;;;19.95;14.32;;;;;;;2.89;100.00;93446.81;2098839;28;20059;-81
2022/03/17 02:58:51;;;;;;;17.75;13.20;;;;;;;2.87;100.00;93444.56;2109229;28;20031;-81
2022/03/17 02:59:52;;;;;;;17.63;13.43;;;;;;;2.87;100.00;93447.19;2113949;28;20066;-82
2022/03/17 03:00:53;;;;;;;21.33;13.52;;;;;;;2.80;100.00;93448.97;2105054;28;20024;-81
2022/03/17 03:01:54;;;;;;;19.42;13.57;;;;;;;2.82;100.00;93438.84;2106690;27;20649;-82
2022/03/17 03:02:55;;;;;;;18.27;13.23;;;;;;;2.79;100.00;93442.94;2111285;27;20613;-84
2022/03/17 03:03:55;;;;;;;20.17;14.05;;;;;;;2.74;100.00;93443.25;2103160;28;20047;-81
2022/03/17 03:05:07;;;;;;;18.98;13.75;;;;;;;2.74;100.00;93451.94;2104956;28;20097;-81
2022/03/17 03:06:08;;;;;;;21.33;14.27;;;;;;;2.73;100.00;93447.03;2108304;28;20045;-83
2022/03/17 03:07:09;;;;;;;20.50;13.25;;;;;;;2.71;100.00;93446.59;2104934;28;20051;-83
2022/03/17 03:08:10;;;;;;;21.00;14.02;;;;;;;2.69;100.00;93446.22;2117046;27;20030;-82
2022/03/17 03:09:13;;;;;;;19.80;13.77;;;;;;;2.72;100.00;93450.75;2115302;27;20027;-81
2022/03/17 03:10:14;;;;;;;20.52;14.38;;;;;;;2.77;100.00;93445.19;2104900;28;20048;-81
2022/03/17 03:11:15;;;;;;;18.25;14.30;;;;;;;2.69;100.00;93448.84;2096961;28;20020;-81
2022/03/17 03:12:16;;;;;;;17.90;12.60;;;;;;;2.75;100.00;93450.81;2098551;28;20128;-81
2022/03/17 03:13:39;;;;;;;21.83;13.70;;;;;;;2.83;100.00;93450.91;2105476;28;20031;-83
2022/03/17 03:14:40;;;;;;;18.95;13.00;;;;;;;2.79;100.00;93450.84;2112997;27;20027;-82
2022/03/17 03:15:42;;;;;;;20.17;13.77;;;;;;;2.88;100.00;93455.88;2116939;27;20100;-80
2022/03/17 03:16:43;;;;;;;18.05;13.38;;;;;;;2.90;100.00;93451.00;2115444;27;20022;-82
2022/03/17 03:17:44;;;;;;;18.92;13.60;;;;;;;2.86;100.00;93450.97;2110439;28;20016;-82
2022/03/17 03:18:44;;;;;;;18.08;12.82;;;;;;;2.80;100.00;93452.38;2108538;28;20023;-80
2022/03/17 03:19:45;;;;;;;18.38;13.77;;;;;;;2.81;100.00;93456.56;2106324;28;20095;-81
2022/03/17 03:20:46;;;;;;;18.90;13.70;;;;;;;2.78;100.00;93457.25;2108778;28;20062;-83
2022/03/17 03:21:47;;;;;;;18.90;13.48;;;;;;;2.74;100.00;93461.72;2096750;28;20016;-81
2022/03/17 03:22:48;;;;;;;17.98;13.65;;;;;;;2.69;100.00;93456.75;2106150;28;20127;-80
2022/03/17 03:23:49;;;;;;;18.20;13.45;;;;;;;2.62;100.00;93456.66;2120975;27;20015;-80
2022/03/17 03:24:50;;;;;;;20.10;13.65;;;;;;;2.58;100.00;93463.75;2115268;27;20352;-81
2022/03/17 03:25:51;;;;;;;17.88;13.70;;;;;;;2.58;100.00;93463.75;2117503;27;20019;-82
2022/03/17 03:26:52;;;;;;;19.77;13.65;;;;;;;2.66;100.00;93462.75;2109350;28;20115;-82
2022/03/17 03:27:53;;;;;;;21.40;13.90;;;;;;;2.69;100.00;93459.41;2104325;28;20020;-83
2022/03/17 03:28:54;;;;;;;16.90;12.90;;;;;;;2.69;100.00;93460.16;2114634;28;20068;-81
2022/03/17 03:29:56;;;;;;;20.38;13.85;;;;;;;2.78;100.00;93465.19;2116874;27;20134;-80
2022/03/17 03:30:57;;;;;;;18.90;13.32;;;;;;;2.85;100.00;93465.25;2108858;28;20015;-82
2022/03/17 03:32:00;;;;;;;18.60;13.60;;;;;;;2.93;100.00;93466.88;2116371;27;20030;-81
2022/03/17 03:33:02;;;;;;;17.67;13.98;;;;;;;2.90;100.00;93474.78;2115555;27;20027;-82
2022/03/17 03:34:22;;;;;;;18.55;13.07;;;;;;;2.90;100.00;93474.78;2106974;28;20031;-81
2022/03/17 03:38:02;;;;;;;22.35;13.90;;;;;;;2.81;100.00;93468.97;2119627;27;20038;-82
2022/03/17 03:39:03;;;;;;;16.92;13.00;;;;;;;2.76;100.00;93480.59;2116904;27;20027;-83
2022/03/17 03:40:05;;;;;;;21.85;14.05;;;;;;;2.72;100.00;93480.56;2117123;27;20039;-82
2022/03/17 03:41:06;;;;;;;21.13;14.02;;;;;;;2.70;100.00;93482.03;2127725;27;20019;-81
2022/03/17 03:42:08;;;;;;;26.15;15.20;;;;;;;2.70;100.00;93485.44;2125452;27;20491;-81
2022/03/17 03:43:09;;;;;;;18.88;13.27;;;;;;;2.68;100.00;93482.41;2125432;27;20109;-83
2022/03/17 03:44:12;;;;;;;18.65;14.05;;;;;;;2.65;100.00;93482.34;2110324;28;20012;-83
2022/03/17 03:45:13;;;;;;;18.50;13.30;;;;;;;2.61;100.00;93484.94;2103735;27;20050;-80
2022/03/17 03:46:14;;;;;;;16.73;13.00;;;;;;;2.68;100.00;93479.00;2108213;28;20111;-83
2022/03/17 03:47:16;;;;;;;18.48;13.45;;;;;;;2.75;100.00;93485.13;2102064;28;20058;-83
2022/03/17 03:48:17;;;;;;;18.08;13.15;;;;;;;2.71;100.00;93483.53;2096677;28;20885;-81
2022/03/17 03:49:18;;;;;;;19.63;13.10;;;;;;;2.83;100.00;93487.88;2107183;28;20031;-82
2022/03/17 03:50:19;;;;;;;16.73;12.75;;;;;;;2.83;100.00;93482.59;2106378;28;20019;-85
2022/03/17 03:51:20;;;;;;;18.85;13.68;;;;;;;2.82;100.00;93492.38;2109739;27;20545;-84
2022/03/17 03:52:21;;;;;;;15.90;11.93;;;;;;;2.79;100.00;93482.53;2107196;28;20020;-84
2022/03/17 03:53:22;;;;;;;20.13;13.90;;;;;;;2.72;100.00;93483.22;2108264;28;20024;-86
2022/03/17 03:54:26;;;;;;;16.73;12.43;;;;;;;2.77;100.00;93487.41;2118266;27;20023;-84
2022/03/17 03:55:27;;;;;;;16.92;12.75;;;;;;;2.76;100.00;93485.88;2096988;28;20070;-84
2022/03/17 03:56:29;;;;;;;18.90;13.43;;;;;;;2.71;100.00;93494.88;2112682;27;20878;-81
2022/03/17 03:57:30;;;;;;;20.00;12.48;;;;;;;2.72;100.00;93493.78;2114447;28;20028;-81
2022/03/17 03:58:31;;;;;;;19.55;13.85;;;;;;;2.76;100.00;93491.16;2117332;27;20049;-81
2022/03/17 03:59:33;;;;;;;17.33;12.32;;;;;;;2.80;100.00;93486.69;2107104;28;21142;-81
2022/03/17 04:00:34;;;;;;;15.65;12.48;;;;;;;2.78;100.00;93484.41;2107420;28;20046;-81
2022/03/17 04:01:35;;;;;;;17.27;12.73;;;;;;;2.80;100.00;93485.94;2108505;28;20023;-82
2022/03/17 04:02:36;;;;;;;17.45;12.93;;;;;;;2.89;100.00;93492.47;2104391;28;20126;-81
2022/03/17 04:03:37;;;;;;;15.23;11.90;;;;;;;2.91;100.00;93487.59;2104310;28;20032;-82
2022/03/17 04:04:40;;;;;;;15.73;12.38;;;;;;;2.91;100.00;93495.53;2099203;28;20021;-82
2022/03/17 04:05:41;;;;;;;16.48;12.38;;;;;;;2.85;100.00;93488.25;2109145;28;20106;-82
2022/03/17 04:06:45;;;;;;;17.58;13.07;;;;;;;2.93;100.00;93493.28;2097627;28;20473;-80
2022/03/17 04:07:46;;;;;;;19.23;12.48;;;;;;;2.99;100.00;93497.13;2113727;27;20024;-81
2022/03/17 04:08:47;;;;;;;16.63;12.95;;;;;;;2.96;100.00;93492.56;2123224;27;20027;-81
2022/03/17 04:09:48;;;;;;;17.73;12.65;;;;;;;3.02;100.00;93493.75;2107099;27;20027;-82
2022/03/17 04:10:49;;;;;;;17.17;12.90;;;;;;;3.03;100.00;93491.91;2108501;28;20023;-81
2022/03/17 04:11:51;;;;;;;15.73;12.27;;;;;;;3.02;100.00;93493.75;2119234;27;20081;-81
2022/03/17 04:12:52;;;;;;;16.95;11.82;;;;;;;3.07;100.00;93495.31;2113681;28;20076;-81
2022/03/17 04:13:53;;;;;;;16.40;11.63;;;;;;;3.17;100.00;93497.34;2107805;27;20349;-81
2022/03/17 04:14:56;;;;;;;18.00;11.93;;;;;;;3.13;100.00;93496.56;2123894;27;20073;-82
2022/03/17 04:15:57;;;;;;;17.02;11.93;;;;;;;3.08;100.00;93496.13;2116467;27;20020;-81
2022/03/17 04:16:58;;;;;;;14.77;11.40;;;;;;;2.94;100.00;93496.66;2097748;28;20077;-81
2022/03/17 04:17:59;;;;;;;15.05;11.90;;;;;;;2.89;100.00;93499.63;2097528;28;20089;-81
2022/03/17 04:19:00;;;;;;;14.82;12.05;;;;;;;2.84;100.00;93503.34;2099783;28;20043;-80
2022/03/17 04:20:02;;;;;;;17.10;11.60;;;;;;;2.96;100.00;93497.09;2100766;28;20020;-82
2022/03/17 04:21:03;;;;;;;16.45;11.93;;;;;;;2.90;100.00;93498.53;2098477;28;20085;-81
2022/03/17 04:22:04;;;;;;;18.50;11.82;;;;;;;2.86;100.00;93498.47;2113092;28;20544;-81
2022/03/17 04:23:05;;;;;;;15.07;11.93;;;;;;;2.90;100.00;93511.72;2108304;28;20544;-82
2022/03/17 04:24:06;;;;;;;18.23;12.10;;;;;;;2.82;100.00;93505.59;2105550;28;20028;-82
2022/03/17 04:25:07;;;;;;;17.58;12.45;;;;;;;2.78;100.00;93502.88;2113542;28;20105;-82
2022/03/17 04:26:08;;;;;;;15.93;11.98;;;;;;;2.85;100.00;93515.41;2117877;27;20020;-82
2022/03/17 04:27:09;;;;;;;13.38;10.20;;;;;;;2.89;100.00;93504.91;2106050;28;20020;-80
2022/03/17 04:28:11;;;;;;;16.85;11.82;;;;;;;2.85;100.00;93504.84;2110305;28;20508;-81
2022/03/17 04:29:13;;;;;;;15.55;11.43;;;;;;;2.80;100.00;93499.88;2106371;28;20349;-81
2022/03/17 04:30:14;;;;;;;15.02;11.38;;;;;;;2.80;100.00;93505.16;2108182;28;20036;-81
2022/03/17 04:31:15;;;;;;;15.73;11.48;;;;;;;2.81;100.00;93505.91;2112701;27;20023;-82
2022/03/17 04:32:16;;;;;;;17.45;12.77;;;;;;;2.78;100.00;93507.41;2120124;27;20026;-82
2022/03/17 04:33:17;;;;;;;17.55;12.18;;;;;;;2.84;100.00;93507.84;2121254;27;20019;-81
2022/03/17 04:34:18;;;;;;;19.42;13.45;;;;;;;2.84;100.00;93505.97;2111596;28;20028;-82
2022/03/17 04:35:20;;;;;;;17.33;13.85;;;;;;;2.81;100.00;93512.00;2113251;28;20491;-81
2022/03/17 04:36:22;;;;;;;16.05;12.32;;;;;;;2.78;100.00;93510.06;2106177;28;20051;-81
2022/03/17 04:37:23;;;;;;;15.05;12.38;;;;;;;2.83;100.00;93511.63;2103792;28;20013;-80
2022/03/17 04:38:25;;;;;;;17.50;13.25;;;;;;;2.85;100.00;93512.00;2098222;28;20031;-81
2022/03/17 04:39:26;;;;;;;17.50;13.10;;;;;;;2.83;100.00;93511.63;2110665;27;20046;-82
2022/03/17 04:40:27;;;;;;;21.25;13.43;;;;;;;2.84;100.00;93515.78;2118288;27;20098;-83
2022/03/17 04:41:28;;;;;;;19.17;13.18;;;;;;;2.81;100.00;93513.84;2108191;28;20020;-80
2022/03/17 04:42:29;;;;;;;19.50;13.25;;;;;;;2.81;100.00;93511.19;2095693;28;20024;-81
2022/03/17 04:43:30;;;;;;;18.60;12.88;;;;;;;2.81;100.00;93512.00;2099853;28;20040;-82
2022/03/17 04:44:31;;;;;;;19.08;13.38;;;;;;;2.86;100.00;93503.75;2109776;28;20583;-82
2022/03/17 04:45:32;;;;;;;16.55;12.52;;;;;;;2.80;100.00;93510.44;2113115;27;20476;-82
2022/03/17 04:46:34;;;;;;;22.73;13.85;;;;;;;2.79;100.00;93514.19;2109498;28;20024;-81
2022/03/17 04:47:35;;;;;;;17.95;12.73;;;;;;;2.76;100.00;93514.91;2108059;28;20501;-81
2022/03/17 04:48:37;;;;;;;18.75;12.68;;;;;;;2.71;100.00;93518.63;2108689;28;20016;-80
2022/03/17 04:49:38;;;;;;;19.67;13.15;;;;;;;2.83;100.00;93519.53;2107932;28;20476;-81
2022/03/17 04:50:39;;;;;;;16.58;12.35;;;;;;;2.85;100.00;93518.06;2118145;27;20061;-82
2022/03/17 04:51:40;;;;;;;17.35;12.63;;;;;;;2.86;100.00;93522.22;2126945;27;20019;-80
2022/03/17 04:54:01;;;;;;;17.98;13.15;;;;;;;2.82;100.00;93524.06;2106958;28;20028;-83